Time;durP1;ratioP1;P1;durP2;ratioP2;P2;SDS_P1;SDS_P2;PMS_P1;PMS_P2;Temp;Humidity;BMP_temperature;BMP_pressure;BME280_temperature;BME280_humidity;BME280_pressure;Samples;Min_cycle;Max_cycle;Signal;HPM_P1;HPM_P2
2023/10/28 00:01:12;;;;;;;20.33;12.45;;;11.00;99.90;;;;;;6177019;23;20019;-83
2023/10/28 00:03:38;;;;;;;20.92;12.23;;;11.00;99.90;;;;;;6178085;23;20024;-83
2023/10/28 00:06:04;;;;;;;25.27;14.05;;;11.10;99.90;;;;;;6177035;23;20008;-83
2023/10/28 00:08:30;;;;;;;20.77;14.13;;;11.10;99.90;;;;;;6177353;23;20012;-83
2023/10/28 00:10:56;;;;;;;24.38;13.93;;;11.10;99.90;;;;;;6174642;23;20088;-83
2023/10/28 00:13:22;;;;;;;24.17;14.43;;;11.10;99.90;;;;;;6202147;23;20043;-83
2023/10/28 00:15:47;;;;;;;27.60;15.93;;;11.10;99.90;;;;;;6201990;23;20195;-83
2023/10/28 00:18:14;;;;;;;27.77;15.82;;;11.00;99.90;;;;;;6152413;23;20008;-83
2023/10/28 00:20:41;;;;;;;29.58;15.32;;;11.10;99.90;;;;;;6176636;23;20099;-83
2023/10/28 00:23:08;;;;;;;29.75;16.30;;;11.10;99.90;;;;;;6152196;23;20056;-83
2023/10/28 00:25:34;;;;;;;28.90;16.42;;;11.10;99.90;;;;;;6173569;23;20367;-83
2023/10/28 00:28:00;;;;;;;32.20;17.67;;;11.20;99.90;;;;;;6176987;23;20012;-83
2023/10/28 00:30:26;;;;;;;34.20;17.77;;;11.10;99.90;;;;;;6176091;23;20039;-83
2023/10/28 00:33:01;;;;;;;33.55;17.48;;;11.10;99.90;;;;;;6151855;23;20310;-83
2023/10/28 00:35:28;;;;;;;;;;;11.00;99.90;;;;;;6152696;23;20017;-82
2023/10/28 00:37:54;;;;;;;37.38;19.15;;;11.10;99.90;;;;;;6177419;23;20236;-82
2023/10/28 00:40:24;;;;;;;36.58;19.10;;;11.10;99.90;;;;;;6174703;23;20016;-82
2023/10/28 00:42:49;;;;;;;40.42;19.90;;;11.10;99.90;;;;;;6153172;23;20017;-83
2023/10/28 00:45:16;;;;;;;37.00;19.25;;;11.00;99.90;;;;;;6151498;23;20438;-83
2023/10/28 00:47:48;;;;;;;34.30;19.30;;;11.20;99.90;;;;;;6152584;23;20016;-83
2023/10/28 00:50:15;;;;;;;38.15;20.45;;;11.10;99.90;;;;;;6152404;23;20012;-83
2023/10/28 00:52:52;;;;;;;42.08;20.58;;;11.20;99.90;;;;;;6152317;23;20012;-83
2023/10/28 00:55:20;;;;;;;37.65;20.67;;;11.20;99.90;;;;;;6149992;23;20024;-83
2023/10/28 00:57:47;;;;;;;43.20;21.30;;;11.20;99.90;;;;;;6152124;23;20067;-83
2023/10/28 01:00:14;;;;;;;43.88;22.40;;;11.20;99.90;;;;;;6177126;23;20030;-83
2023/10/28 01:02:45;;;;;;;44.92;22.67;;;11.20;99.90;;;;;;6176950;23;20072;-83
2023/10/28 01:05:13;;;;;;;40.45;22.00;;;11.10;99.90;;;;;;6151389;23;20084;-82
2023/10/28 01:07:45;;;;;;;48.60;24.40;;;11.10;99.90;;;;;;6152079;23;20028;-83
2023/10/28 01:10:11;;;;;;;44.25;23.33;;;11.20;99.90;;;;;;6175479;23;20040;-83
2023/10/28 01:12:37;;;;;;;46.10;24.58;;;11.20;99.90;;;;;;6200595;23;20009;-83
2023/10/28 01:15:07;;;;;;;44.63;22.95;;;11.30;99.90;;;;;;6151577;23;20366;-83
2023/10/28 01:17:33;;;;;;;44.75;24.52;;;11.10;99.90;;;;;;6175642;23;20109;-83
2023/10/28 01:19:58;;;;;;;47.00;24.67;;;11.20;99.90;;;;;;6150701;23;20025;-83
2023/10/28 01:22:24;;;;;;;49.88;24.90;;;11.30;99.90;;;;;;6175697;23;20378;-83
2023/10/28 01:24:51;;;;;;;51.17;25.25;;;11.20;99.90;;;;;;6176282;23;20052;-83
2023/10/28 01:27:17;;;;;;;47.63;24.40;;;11.20;99.90;;;;;;6174015;23;20091;-83
2023/10/28 01:29:43;;;;;;;52.53;26.23;;;11.30;99.90;;;;;;6151973;23;20680;-83
2023/10/28 01:32:09;;;;;;;47.17;24.83;;;11.30;99.90;;;;;;6151109;23;20040;-83
2023/10/28 01:34:49;;;;;;;52.13;25.40;;;11.20;99.90;;;;;;6151446;23;20373;-82
2023/10/28 01:37:16;;;;;;;51.17;25.73;;;11.30;99.90;;;;;;6150795;23;20369;-83
2023/10/28 01:39:47;;;;;;;47.85;25.70;;;11.20;99.90;;;;;;6151629;23;20023;-83
2023/10/28 01:42:13;;;;;;;48.80;25.73;;;11.20;99.90;;;;;;6148429;23;20021;-83
2023/10/28 01:44:39;;;;;;;54.90;26.48;;;11.20;99.90;;;;;;6176185;23;20437;-82
2023/10/28 01:47:08;;;;;;;48.75;25.48;;;11.20;99.90;;;;;;6150712;23;20322;-83
2023/10/28 01:49:37;;;;;;;48.40;24.83;;;11.20;99.90;;;;;;6175741;23;20466;-83
2023/10/28 01:52:05;;;;;;;45.83;25.20;;;11.20;99.90;;;;;;6175284;23;20013;-83
2023/10/28 01:54:33;;;;;;;44.53;24.67;;;11.30;99.90;;;;;;6200461;23;20027;-83
2023/10/28 01:57:05;;;;;;;43.33;24.98;;;11.20;99.90;;;;;;6172679;23;20016;-82
2023/10/28 01:59:31;;;;;;;50.13;25.60;;;11.20;99.90;;;;;;6150939;23;20047;-83
2023/10/28 02:02:00;;;;;;;53.95;26.17;;;11.20;99.90;;;;;;6175355;23;20016;-83
2023/10/28 02:04:25;;;;;;;51.00;24.48;;;11.10;99.90;;;;;;6176453;23;20428;-83
2023/10/28 02:06:51;;;;;;;46.78;24.25;;;11.10;99.90;;;;;;6175016;23;20008;-83
2023/10/28 02:09:17;;;;;;;46.90;23.63;;;11.10;99.90;;;;;;6202210;23;20024;-83
2023/10/28 02:11:43;;;;;;;45.55;23.00;;;11.00;99.90;;;;;;6172410;23;20063;-83
2023/10/28 02:14:09;;;;;;;41.35;23.92;;;11.10;99.90;;;;;;6202219;23;20016;-83
2023/10/28 02:16:38;;;;;;;47.13;24.48;;;11.10;99.90;;;;;;6177247;23;20020;-83
2023/10/28 02:19:05;;;;;;;41.22;22.65;;;11.20;99.90;;;;;;6176946;23;20084;-83
2023/10/28 02:21:31;;;;;;;48.35;23.95;;;11.00;99.90;;;;;;6178860;23;20027;-83
2023/10/28 02:23:57;;;;;;;45.33;24.13;;;11.10;99.90;;;;;;6181867;23;20099;-83
2023/10/28 02:26:23;;;;;;;50.35;25.48;;;11.10;99.90;;;;;;6178815;23;20023;-83
2023/10/28 02:28:49;;;;;;;54.72;23.88;;;11.10;99.90;;;;;;6181863;23;20016;-83
2023/10/28 02:31:14;;;;;;;43.80;25.08;;;11.00;99.90;;;;;;6181781;23;20012;-83
2023/10/28 02:33:40;;;;;;;42.90;24.98;;;11.00;99.90;;;;;;6181291;23;20078;-83
2023/10/28 02:36:08;;;;;;;50.80;25.42;;;11.00;99.90;;;;;;6206192;23;20124;-83
2023/10/28 02:38:34;;;;;;;45.85;24.58;;;11.00;99.90;;;;;;6207203;23;20473;-83
2023/10/28 02:41:00;;;;;;;51.10;24.02;;;10.90;99.90;;;;;;6178522;23;20020;-82
2023/10/28 02:43:26;;;;;;;51.28;26.10;;;11.00;99.90;;;;;;6181461;23;20062;-83
2023/10/28 02:45:52;;;;;;;50.53;26.48;;;11.00;99.90;;;;;;6181712;23;20012;-83
2023/10/28 02:48:18;;;;;;;44.50;25.65;;;10.80;99.90;;;;;;6206755;23;20303;-83
2023/10/28 02:50:43;;;;;;;47.90;26.85;;;10.90;99.90;;;;;;6181052;23;20012;-83
2023/10/28 02:53:09;;;;;;;51.28;26.80;;;10.80;99.90;;;;;;6206178;23;20020;-82
2023/10/28 02:55:35;;;;;;;43.58;25.60;;;10.80;99.90;;;;;;6203449;23;20020;-83
2023/10/28 02:58:01;;;;;;;47.53;26.30;;;10.80;99.90;;;;;;6181258;23;20450;-83
2023/10/28 03:00:27;;;;;;;48.05;25.88;;;10.70;99.90;;;;;;6206695;23;20016;-83
2023/10/28 03:02:55;;;;;;;46.28;25.17;;;10.70;99.90;;;;;;6181738;23;20012;-82
2023/10/28 03:05:23;;;;;;;47.90;24.85;;;10.70;99.90;;;;;;6180996;23;20095;-83
2023/10/28 03:07:50;;;;;;;45.63;24.17;;;10.70;99.90;;;;;;6183845;23;20070;-83
2023/10/28 03:10:16;;;;;;;40.17;23.38;;;10.70;99.90;;;;;;6180941;23;20477;-83
2023/10/28 03:12:41;;;;;;;40.90;23.45;;;10.60;99.90;;;;;;6182127;23;20059;-83
2023/10/28 03:15:09;;;;;;;39.33;23.88;;;10.60;99.90;;;;;;6208001;23;20016;-82
2023/10/28 03:17:34;;;;;;;40.25;23.85;;;10.50;99.90;;;;;;6183390;23;20011;-83
2023/10/28 03:20:00;;;;;;;43.25;24.13;;;10.50;99.90;;;;;;6183359;23;20095;-83
2023/10/28 03:22:26;;;;;;;39.53;23.30;;;10.40;99.90;;;;;;6178086;23;20447;-82
2023/10/28 03:24:52;;;;;;;41.85;22.73;;;10.40;99.90;;;;;;6177280;23;20023;-82
2023/10/28 03:27:18;;;;;;;39.13;23.00;;;10.50;99.90;;;;;;6200413;23;20012;-83
2023/10/28 03:29:45;;;;;;;44.60;24.02;;;10.40;99.90;;;;;;6177623;23;20067;-83
2023/10/28 03:32:11;;;;;;;37.92;22.23;;;10.40;99.90;;;;;;6153296;23;20035;-83
2023/10/28 03:34:39;;;;;;;33.45;20.83;;;10.40;99.90;;;;;;6153019;23;20240;-83
2023/10/28 03:37:05;;;;;;;36.25;21.33;;;10.40;99.90;;;;;;6177372;23;20071;-83
2023/10/28 03:39:31;;;;;;;36.83;21.52;;;10.40;99.90;;;;;;6178398;23;20086;-83
2023/10/28 03:41:57;;;;;;;38.50;21.40;;;10.40;99.90;;;;;;6171122;23;20024;-83
2023/10/28 03:44:23;;;;;;;39.25;22.45;;;10.40;99.90;;;;;;6178088;23;20628;-83
2023/10/28 03:46:49;;;;;;;41.78;21.55;;;10.30;99.90;;;;;;6202647;23;20023;-83
2023/10/28 03:49:15;;;;;;;34.78;19.05;;;10.20;99.90;;;;;;6153219;23;20019;-83
2023/10/28 03:51:40;;;;;;;34.25;20.48;;;10.20;99.90;;;;;;6152472;23;20012;-83
2023/10/28 03:54:07;;;;;;;33.92;20.40;;;10.20;99.90;;;;;;6152800;23;20338;-83
2023/10/28 03:56:33;;;;;;;37.60;21.25;;;10.20;99.90;;;;;;6174783;23;20024;-83
2023/10/28 03:59:00;;;;;;;33.55;19.90;;;10.20;99.90;;;;;;6153513;23;20013;-83
2023/10/28 04:01:25;;;;;;;36.33;20.80;;;10.30;99.90;;;;;;6178007;23;20434;-82
2023/10/28 04:03:51;;;;;;;30.50;19.60;;;10.20;99.90;;;;;;6178198;23;20020;-83
2023/10/28 04:06:16;;;;;;;40.42;21.27;;;10.30;99.90;;;;;;6152688;23;20026;-83
2023/10/28 04:08:42;;;;;;;36.47;20.30;;;10.30;99.90;;;;;;6177773;23;20016;-83
2023/10/28 04:11:10;;;;;;;35.47;20.95;;;10.30;99.90;;;;;;6150788;23;20028;-83
2023/10/28 04:13:35;;;;;;;35.03;20.20;;;10.40;99.90;;;;;;6190190;23;20087;-82
2023/10/28 04:16:01;;;;;;;34.10;20.63;;;10.40;99.90;;;;;;6177221;23;20039;-82
2023/10/28 04:18:27;;;;;;;39.67;20.15;;;10.40;99.90;;;;;;6199107;23;20422;-83
2023/10/28 04:20:52;;;;;;;33.20;19.27;;;10.40;99.90;;;;;;6202433;23;20017;-83
2023/10/28 04:23:18;;;;;;;35.05;18.90;;;10.40;99.90;;;;;;6177545;23;20029;-82
2023/10/28 04:25:44;;;;;;;38.17;19.63;;;10.40;99.90;;;;;;6174415;23;20336;-83
2023/10/28 04:28:09;;;;;;;34.55;20.02;;;10.40;99.90;;;;;;6176308;23;20017;-83
2023/10/28 04:30:35;;;;;;;38.15;19.98;;;10.50;99.90;;;;;;6176872;23;20137;-83
2023/10/28 04:33:01;;;;;;;32.72;19.42;;;10.60;99.90;;;;;;6152626;23;20095;-83
2023/10/28 04:35:26;;;;;;;33.83;18.85;;;10.50;99.90;;;;;;6152323;23;20107;-83
2023/10/28 04:37:53;;;;;;;31.05;18.38;;;10.60;99.90;;;;;;6177468;23;20016;-83
2023/10/28 04:40:18;;;;;;;34.75;19.20;;;10.70;99.90;;;;;;6193769;23;20021;-82
2023/10/28 04:42:47;;;;;;;35.63;19.95;;;10.60;99.90;;;;;;6152628;23;20012;-83
2023/10/28 04:45:12;;;;;;;36.95;19.90;;;10.50;99.90;;;;;;6177665;23;20750;-83
2023/10/28 04:47:38;;;;;;;44.85;20.85;;;10.60;99.90;;;;;;6152790;23;20139;-82
2023/10/28 04:50:05;;;;;;;37.95;20.73;;;10.70;99.90;;;;;;6169709;23;20016;-82
2023/10/28 04:52:40;;;;;;;38.15;20.40;;;10.70;99.90;;;;;;6182029;23;20035;-83
2023/10/28 04:55:15;;;;;;;37.53;19.95;;;10.70;99.90;;;;;;6185415;23;20421;-83
2023/10/28 04:57:48;;;;;;;43.38;20.75;;;10.70;99.90;;;;;;6212220;23;20357;-83
2023/10/28 05:00:19;;;;;;;35.25;19.95;;;10.70;99.90;;;;;;6186828;23;20476;-83
2023/10/28 05:02:48;;;;;;;41.90;21.25;;;10.70;99.90;;;;;;6181028;23;20418;-83
2023/10/28 05:05:48;;;;;;;40.25;19.77;;;10.70;99.90;;;;;;6183574;23;20425;-83
2023/10/28 05:08:13;;;;;;;36.75;20.65;;;10.70;99.90;;;;;;6183176;23;20485;-83
2023/10/28 05:10:42;;;;;;;40.53;20.83;;;10.70;99.90;;;;;;6180464;23;20024;-82
2023/10/28 05:13:10;;;;;;;38.20;20.05;;;10.70;99.90;;;;;;6155331;23;20095;-83
2023/10/28 05:15:38;;;;;;;42.35;19.95;;;10.70;99.90;;;;;;6176702;23;20028;-83
2023/10/28 05:18:04;;;;;;;39.38;20.67;;;10.60;99.90;;;;;;6152255;23;20056;-83
2023/10/28 05:20:33;;;;;;;37.08;19.25;;;10.80;99.90;;;;;;6151696;23;20020;-83
2023/10/28 05:22:59;;;;;;;37.25;20.90;;;10.80;99.90;;;;;;6151914;23;20021;-83
2023/10/28 05:25:25;;;;;;;38.45;20.63;;;10.70;99.90;;;;;;6173581;23;20017;-82
2023/10/28 05:27:50;;;;;;;38.30;20.02;;;10.70;99.90;;;;;;6176169;23;20242;-82
2023/10/28 05:30:16;;;;;;;40.05;19.70;;;10.70;99.90;;;;;;6175871;23;20150;-83
2023/10/28 05:32:42;;;;;;;44.40;21.67;;;10.80;99.90;;;;;;6175974;23;20047;-83
2023/10/28 05:35:14;;;;;;;36.60;19.75;;;10.70;99.90;;;;;;6151020;23;20511;-82
2023/10/28 05:37:39;;;;;;;41.88;20.30;;;10.70;99.90;;;;;;6151433;23;20099;-83
2023/10/28 05:40:10;;;;;;;35.28;19.65;;;10.80;99.90;;;;;;6173723;23;20762;-83
2023/10/28 05:42:37;;;;;;;36.90;20.70;;;10.70;99.90;;;;;;6174889;23;20040;-83
2023/10/28 05:45:03;;;;;;;37.95;19.50;;;10.70;99.90;;;;;;6176226;23;20016;-83
2023/10/28 05:47:29;;;;;;;34.33;18.48;;;10.80;99.90;;;;;;6175633;23;20016;-83
2023/10/28 05:49:55;;;;;;;37.95;20.30;;;10.70;99.90;;;;;;6176645;23;20098;-82
2023/10/28 05:52:20;;;;;;;39.38;17.08;;;10.80;99.90;;;;;;6176237;23;20063;-82
2023/10/28 05:54:49;;;;;;;32.83;16.55;;;10.70;99.90;;;;;;6201675;23;20074;-83
2023/10/28 05:57:15;;;;;;;36.60;17.10;;;10.70;99.90;;;;;;6173293;23;20059;-83
2023/10/28 05:59:41;;;;;;;33.85;16.80;;;10.80;99.90;;;;;;6151610;23;20017;-83
2023/10/28 06:02:09;;;;;;;40.05;16.63;;;10.70;99.90;;;;;;6150771;23;20333;-83
2023/10/28 06:04:35;;;;;;;30.73;15.95;;;10.80;99.90;;;;;;6151773;23;20020;-82
2023/10/28 06:07:00;;;;;;;35.42;16.42;;;10.80;99.90;;;;;;6174797;23;20450;-83
2023/10/28 06:09:26;;;;;;;31.77;15.73;;;10.90;99.90;;;;;;6200792;23;20013;-83
2023/10/28 06:11:52;;;;;;;38.22;15.30;;;10.80;99.90;;;;;;6148162;23;20008;-83
2023/10/28 06:14:18;;;;;;;27.88;14.35;;;10.90;99.90;;;;;;6150861;23;20095;-83
2023/10/28 06:16:44;;;;;;;30.00;15.00;;;10.90;99.90;;;;;;6150469;23;20021;-83
2023/10/28 06:19:10;;;;;;;26.02;13.50;;;10.90;99.90;;;;;;6176415;23;20013;-83
2023/10/28 06:21:36;;;;;;;29.88;14.55;;;10.80;99.90;;;;;;6152865;23;20499;-82
2023/10/28 06:24:02;;;;;;;26.00;13.88;;;10.80;99.90;;;;;;6180714;23;20016;-82
2023/10/28 06:26:28;;;;;;;26.95;14.25;;;10.90;99.90;;;;;;6202820;23;20137;-82
2023/10/28 06:28:54;;;;;;;22.90;13.70;;;10.90;99.90;;;;;;6181107;23;20047;-83
2023/10/28 06:31:20;;;;;;;30.95;13.75;;;10.90;99.90;;;;;;6180673;23;20468;-82
2023/10/28 06:33:46;;;;;;;26.83;12.65;;;11.00;99.90;;;;;;6182101;23;20020;-82
2023/10/28 06:36:11;;;;;;;25.13;13.18;;;11.00;99.90;;;;;;6181177;23;20096;-82
2023/10/28 06:38:37;;;;;;;23.15;12.45;;;11.00;99.90;;;;;;6206636;23;20016;-83
2023/10/28 06:41:03;;;;;;;23.25;12.73;;;11.00;99.90;;;;;;6205409;23;20016;-82
2023/10/28 06:43:29;;;;;;;28.85;13.57;;;10.90;99.90;;;;;;6183404;23;20066;-82
2023/10/28 06:45:55;;;;;;;24.30;13.38;;;11.00;99.90;;;;;;6183321;23;20016;-82
2023/10/28 06:48:21;;;;;;;26.73;12.30;;;11.00;99.90;;;;;;6184118;23;20016;-83
2023/10/28 06:50:48;;;;;;;31.35;11.73;;;11.10;99.90;;;;;;6183143;23;20028;-83
2023/10/28 06:53:13;;;;;;;25.83;11.77;;;11.10;99.90;;;;;;6209273;23;20453;-82
2023/10/28 06:55:39;;;;;;;25.77;11.85;;;11.10;99.90;;;;;;6180790;23;20023;-82
2023/10/28 06:58:05;;;;;;;24.48;11.57;;;11.10;99.90;;;;;;6183387;23;20019;-83
2023/10/28 07:00:31;;;;;;;18.75;11.00;;;11.10;99.90;;;;;;6183580;23;20046;-82
2023/10/28 07:02:57;;;;;;;23.33;11.82;;;11.10;99.90;;;;;;6183270;23;20012;-83
2023/10/28 07:05:24;;;;;;;23.05;11.10;;;11.20;99.90;;;;;;6183003;23;20261;-82
2023/10/28 07:07:51;;;;;;;22.17;11.95;;;11.10;99.90;;;;;;6182967;23;20005;-83
2023/10/28 07:10:16;;;;;;;19.88;10.77;;;11.10;99.90;;;;;;6181238;23;20430;-82
2023/10/28 07:12:43;;;;;;;17.17;10.60;;;11.10;99.90;;;;;;6207924;23;20065;-82
2023/10/28 07:15:09;;;;;;;22.85;9.20;;;11.20;99.90;;;;;;6182707;23;20130;-82
2023/10/28 07:17:35;;;;;;;17.73;8.18;;;11.20;99.90;;;;;;6183129;23;20051;-82
2023/10/28 07:20:01;;;;;;;13.70;7.68;;;11.20;99.90;;;;;;6181637;23;20353;-82
2023/10/28 07:22:27;;;;;;;13.60;7.60;;;11.20;99.90;;;;;;6181579;23;20532;-82
2023/10/28 07:24:54;;;;;;;11.27;7.20;;;11.20;99.90;;;;;;6183293;23;20573;-82
2023/10/28 07:27:21;;;;;;;11.63;6.30;;;11.20;99.90;;;;;;6205891;23;20012;-82
2023/10/28 07:29:49;;;;;;;14.52;7.57;;;11.30;99.90;;;;;;6182867;23;20075;-82
2023/10/28 07:32:15;;;;;;;12.15;7.43;;;11.40;99.90;;;;;;6207389;23;20012;-82
2023/10/28 07:34:41;;;;;;;11.65;7.20;;;11.40;99.90;;;;;;6182393;23;20012;-82
2023/10/28 07:37:06;;;;;;;17.25;6.72;;;11.30;99.90;;;;;;6206463;23;20349;-82
2023/10/28 07:39:33;;;;;;;15.85;7.07;;;11.40;99.90;;;;;;6182953;23;20358;-82
2023/10/28 07:41:59;;;;;;;15.15;7.35;;;11.40;99.90;;;;;;6204385;23;20027;-82
2023/10/28 07:44:25;;;;;;;14.88;6.57;;;11.50;99.90;;;;;;6182511;23;20019;-82
2023/10/28 07:46:51;;;;;;;13.88;7.38;;;11.50;99.90;;;;;;6206205;23;20290;-82
2023/10/28 07:49:16;;;;;;;15.18;6.57;;;11.50;99.90;;;;;;6207207;23;20396;-83
2023/10/28 07:51:42;;;;;;;17.20;7.03;;;11.50;99.90;;;;;;6181226;23;20423;-83
2023/10/28 07:54:10;;;;;;;18.15;7.32;;;11.50;99.90;;;;;;6181702;23;20134;-82
2023/10/28 07:56:36;;;;;;;16.05;7.55;;;11.60;99.90;;;;;;6178564;23;20012;-82
2023/10/28 07:59:02;;;;;;;14.52;7.15;;;11.60;99.90;;;;;;6208222;23;20512;-83
2023/10/28 08:01:29;;;;;;;11.95;6.57;;;11.60;99.90;;;;;;6206316;23;20377;-82
2023/10/28 08:03:55;;;;;;;14.70;7.28;;;11.70;99.90;;;;;;6181660;23;20367;-82
2023/10/28 08:06:22;;;;;;;10.70;6.15;;;11.70;99.90;;;;;;6207150;23;20016;-83
2023/10/28 08:08:47;;;;;;;10.60;5.80;;;11.70;99.90;;;;;;6207512;23;20188;-82
2023/10/28 08:11:13;;;;;;;11.02;6.03;;;11.70;99.90;;;;;;6179717;23;20401;-83
2023/10/28 08:13:40;;;;;;;10.63;5.75;;;11.70;99.90;;;;;;6206062;23;20089;-82
2023/10/28 08:16:09;;;;;;;9.02;6.10;;;11.70;99.90;;;;;;6207452;23;20070;-82
2023/10/28 08:18:36;;;;;;;10.98;5.93;;;11.70;99.90;;;;;;6181435;23;20026;-83
2023/10/28 08:21:02;;;;;;;8.55;5.55;;;11.80;99.90;;;;;;6205600;23;20179;-82
2023/10/28 08:23:30;;;;;;;16.45;5.63;;;11.80;99.90;;;;;;6182338;23;20016;-83
2023/10/28 08:25:59;;;;;;;9.50;5.55;;;11.90;99.90;;;;;;6178866;23;20151;-82
2023/10/28 08:28:28;;;;;;;11.82;5.95;;;12.00;99.90;;;;;;6206549;23;20457;-83
2023/10/28 08:30:54;;;;;;;9.82;5.22;;;12.00;99.90;;;;;;6181699;23;20377;-82
2023/10/28 08:33:20;;;;;;;8.25;5.25;;;12.00;99.90;;;;;;6182125;23;20463;-83
2023/10/28 08:35:51;;;;;;;9.60;5.50;;;12.00;99.90;;;;;;6206345;23;20066;-83
2023/10/28 08:38:17;;;;;;;12.45;5.97;;;12.00;99.90;;;;;;6181955;23;20020;-83
2023/10/28 08:40:47;;;;;;;12.35;5.82;;;12.00;99.90;;;;;;6203941;23;20024;-83
2023/10/28 08:43:14;;;;;;;11.48;4.78;;;11.90;99.90;;;;;;6180972;23;20073;-82
2023/10/28 08:45:42;;;;;;;9.88;4.90;;;12.00;99.90;;;;;;6180786;23;20008;-82
2023/10/28 08:48:10;;;;;;;8.48;4.47;;;11.90;99.90;;;;;;6180969;23;20016;-83
2023/10/28 08:50:39;;;;;;;12.20;4.80;;;12.00;99.90;;;;;;6180612;23;20015;-83
2023/10/28 08:53:08;;;;;;;7.88;4.40;;;12.00;99.90;;;;;;6181285;23;20019;-82
2023/10/28 08:55:39;;;;;;;7.60;4.57;;;11.90;99.90;;;;;;6179340;23;20039;-82
2023/10/28 08:58:06;;;;;;;8.57;4.72;;;12.10;99.90;;;;;;6181118;23;20016;-83
2023/10/28 09:00:38;;;;;;;9.80;4.43;;;12.00;99.90;;;;;;6181090;23;20444;-82
2023/10/28 09:03:05;;;;;;;8.52;4.50;;;12.10;99.90;;;;;;6181833;23;20023;-82
2023/10/28 09:05:31;;;;;;;7.97;3.70;;;12.00;99.90;;;;;;6181157;23;20016;-83
2023/10/28 09:07:57;;;;;;;6.75;4.20;;;12.20;99.90;;;;;;6183212;23;20051;-82
2023/10/28 09:10:23;;;;;;;8.38;4.38;;;12.20;99.90;;;;;;6204982;23;20066;-82
2023/10/28 09:12:52;;;;;;;8.55;4.63;;;12.20;99.90;;;;;;6205880;23;20389;-82
2023/10/28 09:15:18;;;;;;;8.20;4.15;;;12.20;99.90;;;;;;6181540;23;20024;-82
2023/10/28 09:17:44;;;;;;;6.13;3.90;;;12.30;99.90;;;;;;6182122;23;20035;-82
2023/10/28 09:20:11;;;;;;;7.63;3.90;;;12.20;99.90;;;;;;6181134;23;20355;-82
2023/10/28 09:22:46;;;;;;;5.90;3.78;;;12.30;99.90;;;;;;6206087;23;20322;-82
2023/10/28 09:25:15;;;;;;;;;;;12.30;99.90;;;;;;6180473;23;20417;-82
2023/10/28 09:27:42;;;;;;;6.95;4.30;;;12.40;99.90;;;;;;6180459;23;20317;-82
2023/10/28 09:30:12;;;;;;;7.40;4.60;;;12.40;99.90;;;;;;6182517;23;20095;-82
2023/10/28 09:32:38;;;;;;;7.93;4.40;;;12.60;99.90;;;;;;6182490;23;20016;-82
2023/10/28 09:35:06;;;;;;;7.32;3.95;;;12.50;99.90;;;;;;6206944;23;20250;-82
2023/10/28 09:37:42;;;;;;;6.50;4.20;;;12.60;99.90;;;;;;6181042;23;20094;-82
2023/10/28 09:40:10;;;;;;;9.52;4.38;;;12.50;99.90;;;;;;6205599;23;20540;-82
2023/10/28 09:42:37;;;;;;;7.28;4.10;;;12.50;99.90;;;;;;6179862;23;20038;-82
2023/10/28 09:45:05;;;;;;;8.63;3.88;;;12.50;99.90;;;;;;6205930;23;20110;-82
2023/10/28 09:47:50;;;;;;;7.20;4.10;;;12.60;99.90;;;;;;6181321;23;20043;-82
2023/10/28 09:50:19;;;;;;;6.13;3.80;;;12.70;99.90;;;;;;6180551;23;20038;-82
2023/10/28 09:52:48;;;;;;;10.55;3.85;;;12.80;99.90;;;;;;6206623;23;20044;-82
2023/10/28 09:55:15;;;;;;;6.72;3.33;;;12.90;99.90;;;;;;6179123;23;20016;-82
2023/10/28 09:57:45;;;;;;;5.82;3.50;;;12.70;99.90;;;;;;6178000;23;20349;-82
2023/10/28 10:00:19;;;;;;;6.93;3.88;;;12.60;99.90;;;;;;6206338;23;20047;-82
2023/10/28 10:02:55;;;;;;;4.93;3.78;;;12.60;99.90;;;;;;6180794;23;20016;-82
2023/10/28 10:05:32;;;;;;;7.65;3.67;;;12.60;99.90;;;;;;6180868;23;20016;-82
2023/10/28 10:07:58;;;;;;;7.35;3.80;;;12.70;99.90;;;;;;6205411;23;20037;-82
2023/10/28 10:10:23;;;;;;;8.85;3.72;;;12.80;99.90;;;;;;6178303;23;20012;-81
2023/10/28 10:12:54;;;;;;;6.03;3.17;;;12.70;99.90;;;;;;6205725;23;20012;-82
2023/10/28 10:15:20;;;;;;;5.05;3.78;;;12.60;99.90;;;;;;6180070;23;20016;-82
2023/10/28 10:18:07;;;;;;;6.82;3.45;;;12.60;99.90;;;;;;6181070;23;20476;-82
2023/10/28 10:20:33;;;;;;;8.30;3.50;;;12.60;99.90;;;;;;6180731;23;20690;-82
2023/10/28 10:23:00;;;;;;;9.55;3.65;;;12.50;99.90;;;;;;6179904;23;20016;-82
2023/10/28 10:25:37;;;;;;;6.43;3.30;;;12.60;99.90;;;;;;6177509;23;20020;-82
2023/10/28 10:28:14;;;;;;;6.85;3.75;;;12.50;99.90;;;;;;6180291;23;20012;-82
2023/10/28 10:30:44;;;;;;;6.07;3.72;;;12.70;99.90;;;;;;6180147;23;20051;-82
2023/10/28 10:33:10;;;;;;;8.02;3.65;;;12.70;99.90;;;;;;6181316;23;20156;-82
2023/10/28 10:35:36;;;;;;;8.35;4.00;;;13.00;99.90;;;;;;6180124;23;20027;-82
2023/10/28 10:38:03;;;;;;;4.80;3.03;;;12.90;99.90;;;;;;6205236;23;20012;-82
2023/10/28 10:40:52;;;;;;;5.72;3.38;;;12.90;99.90;;;;;;6177983;23;20283;-82
2023/10/28 10:43:19;;;;;;;8.93;3.30;;;12.90;99.90;;;;;;6204983;23;20345;-82
2023/10/28 10:45:45;;;;;;;7.85;3.25;;;12.70;99.90;;;;;;6204619;23;20017;-81
2023/10/28 10:48:11;;;;;;;3.95;2.97;;;12.80;99.90;;;;;;6180899;23;20016;-81
2023/10/28 10:50:40;;;;;;;4.40;3.00;;;12.70;99.90;;;;;;6179931;23;20008;-81
2023/10/28 10:53:05;;;;;;;5.78;3.20;;;12.80;99.90;;;;;;6181412;23;20016;-82
2023/10/28 10:55:32;;;;;;;9.52;3.85;;;12.80;99.90;;;;;;6202794;23;20372;-82
2023/10/28 10:57:58;;;;;;;13.48;3.20;;;12.90;99.90;;;;;;6180301;23;20078;-82
2023/10/28 11:00:25;;;;;;;8.52;3.53;;;13.00;99.90;;;;;;6180729;23;20019;-81
2023/10/28 11:02:53;;;;;;;5.50;3.33;;;12.80;99.90;;;;;;6205520;23;20055;-82
2023/10/28 11:05:19;;;;;;;5.32;3.10;;;13.00;99.90;;;;;;6204737;23;20103;-81
2023/10/28 11:07:45;;;;;;;5.05;3.28;;;13.20;99.90;;;;;;6205645;23;20048;-82
2023/10/28 11:10:11;;;;;;;4.68;3.53;;;13.20;99.90;;;;;;6179114;23;20020;-82
2023/10/28 11:12:38;;;;;;;9.35;3.33;;;13.30;99.90;;;;;;6203909;23;20009;-81
2023/10/28 11:15:04;;;;;;;6.85;3.10;;;13.50;99.90;;;;;;6205495;23;20145;-82
2023/10/28 11:17:30;;;;;;;8.00;3.10;;;13.40;99.90;;;;;;6204948;23;20012;-82
2023/10/28 11:20:00;;;;;;;13.68;3.20;;;13.40;99.90;;;;;;6204857;23;20023;-81
2023/10/28 11:22:26;;;;;;;7.85;3.35;;;13.50;99.90;;;;;;6204676;23;20020;-82
2023/10/28 11:24:56;;;;;;;6.35;3.38;;;13.30;99.90;;;;;;6205307;23;20023;-82
2023/10/28 11:27:24;;;;;;;5.93;2.92;;;13.40;99.90;;;;;;6203471;23;20074;-82
2023/10/28 11:29:51;;;;;;;8.18;2.83;;;13.10;99.90;;;;;;6206829;23;20525;-82
2023/10/28 11:32:19;;;;;;;4.75;2.92;;;13.10;99.90;;;;;;6206460;23;20012;-82
2023/10/28 11:34:46;;;;;;;6.03;2.70;;;13.20;99.90;;;;;;6206781;23;20182;-82
2023/10/28 11:37:12;;;;;;;5.85;2.70;;;13.30;99.90;;;;;;6180869;23;20016;-82
2023/10/28 11:39:44;;;;;;;6.90;2.97;;;13.20;99.90;;;;;;6207001;23;20531;-82
2023/10/28 11:42:15;;;;;;;6.30;3.10;;;13.30;99.90;;;;;;6208459;23;20024;-82
2023/10/28 11:44:47;;;;;;;6.07;3.08;;;13.30;99.90;;;;;;6213541;23;20103;-82
2023/10/28 11:47:12;;;;;;;5.43;2.85;;;13.20;99.90;;;;;;6213416;23;20040;-82
2023/10/28 11:49:38;;;;;;;4.72;2.88;;;13.40;99.90;;;;;;6188781;23;20471;-82
2023/10/28 11:52:04;;;;;;;5.68;2.50;;;13.50;99.90;;;;;;6213003;23;20012;-82
2023/10/28 11:54:30;;;;;;;4.85;2.70;;;13.50;99.90;;;;;;6214357;23;20012;-82
2023/10/28 11:56:56;;;;;;;6.20;2.92;;;13.60;99.90;;;;;;6211742;23;20047;-82
2023/10/28 11:59:22;;;;;;;5.88;2.80;;;13.40;99.90;;;;;;6163350;23;20429;-82
2023/10/28 12:01:50;;;;;;;8.18;3.13;;;13.40;99.90;;;;;;6214083;23;20047;-82
2023/10/28 12:04:16;;;;;;;3.33;2.40;;;13.40;99.90;;;;;;6188587;23;20429;-82
2023/10/28 12:06:42;;;;;;;7.63;3.28;;;13.40;99.90;;;;;;6212751;23;20008;-81
2023/10/28 12:09:11;;;;;;;3.88;2.30;;;13.40;99.90;;;;;;6188427;23;20472;-82
2023/10/28 12:11:37;;;;;;;6.28;2.55;;;13.20;99.90;;;;;;6186511;23;20012;-82
2023/10/28 12:14:04;;;;;;;5.57;2.60;;;13.20;99.90;;;;;;6188949;23;20027;-81
2023/10/28 12:16:35;;;;;;;4.55;2.45;;;13.20;99.90;;;;;;6186359;23;20042;-82
2023/10/28 12:19:01;;;;;;;7.47;2.33;;;13.30;99.90;;;;;;6206594;23;20023;-82
2023/10/28 12:21:28;;;;;;;3.88;2.40;;;13.30;99.90;;;;;;6179803;23;20082;-81
2023/10/28 12:23:54;;;;;;;6.05;2.70;;;13.40;99.90;;;;;;6206206;23;20027;-82
2023/10/28 12:26:20;;;;;;;8.10;2.80;;;13.60;99.90;;;;;;6177671;23;20008;-81
2023/10/28 12:28:49;;;;;;;5.03;2.58;;;13.60;99.90;;;;;;6205382;23;20086;-82
2023/10/28 12:31:18;;;;;;;6.65;3.03;;;13.50;99.90;;;;;;6181127;23;20012;-82
2023/10/28 12:33:45;;;;;;;3.38;2.38;;;13.40;99.90;;;;;;6180754;23;20453;-81
2023/10/28 12:36:11;;;;;;;3.15;2.22;;;13.50;99.90;;;;;;6180859;23;20012;-82